Young America, MN (55397)

12:18 PM CDT on March 29, 2015 (GMT -0500)
Coldwater Crossing | | Change Station
CLOSE
Current Station
Personal Weather Station
Location: Mayer, MN
Elevation: 961 ft
Nearby Weather Stations
Active Advisory: Wind Advisory

Elev 961 ft 44.89 °N, 93.89 °W | Updated 2 minutes ago

Rain
Rain
41.9 °F
Feels Like 34 °F
N
17.0
Wind Variable Wind from NW
Gusts 29.0 mph

Today
High -- | Low -- °F
--% Chance of Precip.
Yesterday
High -- | Low -- °F
Precip. -- in
7:02 AM 7:39 PM
Waxing Gibbous, 73% visible
Pressure 29.68 in
Visibility 10.0 miles
Clouds Overcast 1800 ft
Windchill 34 °F
Dew Point 38 °F
Humidity 85%
Rainfall 0.00 in
Snow Depth Not available.
UV 2 out of 12
Pollen 3.90 out of 12
Air Quality Not available.
Flu Activity Not available.
METAR KGYL 291655Z AUTO 29025G32KT 10SM OVC018 06/04 A2968 RMK AO2 P0002 T00560041

More Conditions Fewer Conditions

Pressure 29.68 in
Visibility 10.0 miles
Clouds Overcast 1800 ft
Windchill 34 °F
Dew Point 38 °F
Humidity 85%
Rainfall 0.00 in
Snow Depth Not available.
UV 2 out of 12
Pollen 3.90 out of 12
Air Quality Not available.
Flu Activity Not available.
METAR KGYL 291655Z AUTO 29025G32KT 10SM OVC018 06/04 A2968 RMK AO2 P0002 T00560041

More Conditions Fewer Conditions

10-Day Weather Forecast

Almanac

Astronomy

Mar. 29, 2015 Rise Set
Actual Time
Civil Twilight
Nautical Twilight
Astronomical Twilight
Moon
Length of Visible Light
Length of Day
Tomorrow will be .
, % of the Moon is Illuminated

Today's Extremes

State Highs State Lows

Community

WunderPhotos

Upload Photos

1,809,301 photos uploaded!

WunderBlogs® & News

Nearby

Air Quality

  Air Quality AQ Index Pollutant
Not available.

Snow Depth

Station Depth Elevation

Earthquake Activity

City Distance Mag. Time & Date
Minimum magnitude displayed is 2.5.

Coastal Water Temperatures

Place Temperature

Stations

Nearby Weather Stations

Station Location Temp. Windchill Dew Point Humidity Wind Precip. Elev Updated Type
                   
Wind Advisory
Statement as of 11:16 AM CDT on March 29, 2015

... Wind Advisory remains in effect until 6 PM CDT this evening...

* timing... through the afternoon hours.

* Winds... northwest 30 to 35 mph with gusts 45 to 50 mph.

* Impacts... driving may be difficult at times... especially for
high profile and light weight vehicles. Unsecured outdoor
items will be blown around.

Precautionary/preparedness actions...

A Wind Advisory means that sustained winds of 30 to 39 mph or
gusts between 45 and 57 mph are expected. Winds this strong can
make driving difficult... especially for high profile vehicles.
Use extra caution.